Time;durP1;ratioP1;P1;durP2;ratioP2;P2;SDS_P1;SDS_P2;PMS_P1;PMS_P2;Temp;Humidity;BMP_temperature;BMP_pressure;BME280_temperature;BME280_humidity;BME280_pressure;Samples;Min_cycle;Max_cycle;Signal;HPM_P1;HPM_P2
2021/08/06 00:00:07;;;;;;;9.45;2.60;;;;;;;22.94;63.46;99758.78;5132120;27;20104;-83
2021/08/06 00:02:36;;;;;;;5.63;2.95;;;;;;;22.87;63.79;99756.97;5114398;28;20030;-83
2021/08/06 00:05:05;;;;;;;7.13;2.65;;;;;;;22.86;63.85;99754.59;5115162;28;20452;-83
2021/08/06 00:07:33;;;;;;;10.98;3.50;;;;;;;22.90;63.85;99749.59;5114363;28;20088;-80
2021/08/06 00:10:01;;;;;;;6.55;2.58;;;;;;;22.97;63.54;99755.84;5114374;28;20032;-82
2021/08/06 00:12:29;;;;;;;4.57;2.95;;;;;;;22.93;63.27;99743.81;5115493;28;20027;-79
2021/08/06 00:14:57;;;;;;;8.10;2.80;;;;;;;22.98;63.49;99748.13;5114807;27;20024;-82
2021/08/06 00:17:23;;;;;;;6.25;2.50;;;;;;;22.91;63.78;99749.16;5114535;28;20440;-83
2021/08/06 00:19:54;;;;;;;5.97;2.40;;;;;;;23.00;63.56;99754.13;5114107;28;20027;-79
2021/08/06 00:22:22;;;;;;;8.10;2.80;;;;;;;22.91;64.08;99746.31;5114163;28;20092;-81
2021/08/06 00:24:52;;;;;;;6.10;2.90;;;;;;;22.94;63.89;99747.44;5114537;28;20118;-82
2021/08/06 00:27:25;;;;;;;7.80;3.13;;;;;;;22.95;63.94;99749.03;5114306;28;20050;-82
2021/08/06 00:29:54;;;;;;;;;;;;;;;22.86;63.78;99746.88;5114416;28;20027;-82
2021/08/06 00:32:25;;;;;;;6.60;2.55;;;;;;;22.85;63.95;99748.13;5113718;28;19947;-80
2021/08/06 00:34:53;;;;;;;4.32;2.35;;;;;;;22.87;63.61;99739.94;5113736;28;20075;-83
2021/08/06 00:37:24;;;;;;;7.47;2.85;;;;;;;22.87;64.00;99736.31;5115003;28;20466;-83
2021/08/06 00:39:50;;;;;;;5.93;2.47;;;;;;;22.91;63.96;99740.66;5114755;28;20028;-79
2021/08/06 00:42:16;;;;;;;6.93;2.45;;;;;;;22.94;63.74;99719.88;5113942;28;20031;-83
2021/08/06 00:44:41;;;;;;;4.78;2.92;;;;;;;22.95;63.63;99727.13;5113715;28;20035;-81
2021/08/06 00:47:13;;;;;;;6.13;2.38;;;;;;;23.04;63.22;99726.41;5113718;28;20020;-79
2021/08/06 00:49:44;;;;;;;3.85;2.47;;;;;;;22.96;63.58;99727.94;5113772;28;20423;-80
2021/08/06 00:52:15;;;;;;;8.95;2.75;;;;;;;22.98;63.63;99729.06;5113498;28;20020;-83
2021/08/06 00:54:44;;;;;;;5.80;3.22;;;;;;;22.97;63.79;99729.53;5113543;28;20087;-79
2021/08/06 00:57:13;;;;;;;2.92;2.20;;;;;;;22.87;63.42;99742.00;5114790;28;20088;-80
2021/08/06 00:59:42;;;;;;;6.45;2.40;;;;;;;22.75;63.76;99740.78;5113557;28;20032;-82
2021/08/06 01:02:32;;;;;;;10.90;2.60;;;;;;;22.76;64.00;99742.38;5115058;28;20103;-79
2021/08/06 01:05:08;;;;;;;6.75;2.85;;;;;;;22.75;64.56;99737.94;5113193;28;20035;-82
2021/08/06 01:07:53;;;;;;;7.85;2.92;;;;;;;22.64;65.43;99721.28;5131251;27;20360;-81
2021/08/06 01:10:28;;;;;;;5.28;2.92;;;;;;;22.61;66.56;99722.19;5113263;28;20111;-80
2021/08/06 01:12:59;;;;;;;6.45;2.35;;;;;;;22.71;66.67;99725.94;5130277;27;20028;-82
2021/08/06 01:15:32;;;;;;;7.45;2.92;;;;;;;22.67;67.12;99733.75;5113807;28;20050;-82
2021/08/06 01:18:03;;;;;;;;;;;;;;;22.71;66.83;99720.25;5113689;28;20387;-81
2021/08/06 01:20:33;;;;;;;6.57;2.45;;;;;;;22.77;66.32;99721.25;5113789;28;19911;-83
2021/08/06 01:23:26;;;;;;;7.47;2.53;;;;;;;22.54;66.22;99721.66;5130419;27;20026;-82
2021/08/06 01:26:08;;;;;;;7.77;2.60;;;;;;;22.53;66.22;99717.22;5130238;27;20462;-83
2021/08/06 01:28:45;;;;;;;5.88;2.10;;;;;;;22.59;65.77;99723.91;5113225;28;20031;-79
2021/08/06 01:31:22;;;;;;;6.90;2.38;;;;;;;22.58;65.56;99722.31;5114404;28;20055;-83
2021/08/06 01:33:53;;;;;;;6.38;2.50;;;;;;;22.53;66.12;99723.69;5112955;28;20036;-81
2021/08/06 01:36:22;;;;;;;8.23;2.20;;;;;;;22.43;66.47;99725.63;5112978;28;20503;-78
2021/08/06 01:38:48;;;;;;;5.68;2.17;;;;;;;22.45;66.56;99717.47;5113133;28;20168;-79
2021/08/06 01:41:34;;;;;;;6.22;2.15;;;;;;;22.43;66.48;99722.00;5113378;28;20493;-83
2021/08/06 01:44:36;;;;;;;6.07;2.28;;;;;;;22.43;66.80;99725.63;5113092;28;20401;-83
2021/08/06 01:47:17;;;;;;;4.13;2.05;;;;;;;22.50;66.22;99718.94;5113315;28;20351;-83
2021/08/06 01:49:48;;;;;;;6.05;2.10;;;;;;;22.45;65.96;99713.84;5114282;27;20373;-80
2021/08/06 01:52:20;;;;;;;7.22;3.05;;;;;;;22.39;66.61;99716.44;5112971;28;20028;-79
2021/08/06 01:54:53;;;;;;;5.20;2.42;;;;;;;22.36;67.29;99717.34;5113702;28;20023;-81
2021/08/06 01:57:21;;;;;;;10.52;3.22;;;;;;;22.43;66.90;99716.34;5112698;28;20023;-83
2021/08/06 01:59:49;;;;;;;15.20;3.08;;;;;;;22.36;67.04;99714.50;5112552;28;20498;-83
2021/08/06 02:02:21;;;;;;;9.77;2.67;;;;;;;22.32;67.35;99713.03;5112897;28;20096;-81
2021/08/06 02:04:49;;;;;;;5.75;2.28;;;;;;;22.31;67.35;99708.63;5112910;28;20058;-81
2021/08/06 02:07:21;;;;;;;6.28;2.38;;;;;;;22.35;67.39;99715.75;5114275;28;20039;-83
2021/08/06 02:09:47;;;;;;;5.85;2.60;;;;;;;22.32;67.48;99711.03;5114864;28;20028;-83
2021/08/06 02:12:13;;;;;;;5.68;2.25;;;;;;;22.38;67.51;99712.03;5112743;28;20374;-80
2021/08/06 02:14:42;;;;;;;20.65;17.98;;;;;;;22.33;66.79;99698.44;5112698;28;20027;-82
2021/08/06 02:17:12;;;;;;;46.30;36.80;;;;;;;22.31;65.52;99706.56;5112645;28;20028;-78
2021/08/06 02:19:42;;;;;;;35.88;31.30;;;;;;;22.23;64.94;99696.75;5112617;28;20474;-81
2021/08/06 02:22:12;;;;;;;19.65;17.58;;;;;;;22.21;64.49;99694.38;5112706;28;20022;-82
2021/08/06 02:24:45;;;;;;;15.13;12.10;;;;;;;22.22;64.97;99698.00;5112437;28;20035;-82
2021/08/06 02:27:15;;;;;;;7.00;5.18;;;;;;;22.25;64.30;99699.13;5113290;28;20169;-82
2021/08/06 02:29:43;;;;;;;7.68;5.57;;;;;;;22.23;64.33;99702.41;5112362;28;20024;-79
2021/08/06 02:32:10;;;;;;;6.35;4.65;;;;;;;22.24;64.30;99704.00;5113052;28;20422;-82
2021/08/06 02:34:42;;;;;;;6.93;3.30;;;;;;;22.26;64.68;99707.16;5112208;28;20485;-81
2021/08/06 02:37:09;;;;;;;6.43;3.30;;;;;;;22.20;65.33;99704.09;5112603;28;20059;-83
2021/08/06 02:39:38;;;;;;;7.47;3.10;;;;;;;22.16;65.67;99692.09;5112692;28;20496;-83
2021/08/06 02:42:09;;;;;;;4.45;2.40;;;;;;;22.15;66.24;99695.38;5116262;28;20055;-79
2021/08/06 02:44:37;;;;;;;3.90;2.50;;;;;;;22.14;66.96;99705.13;5116036;28;20506;-81
2021/08/06 02:47:07;;;;;;;8.23;2.58;;;;;;;22.16;67.73;99696.97;5116094;28;20035;-81
2021/08/06 02:49:39;;;;;;;7.07;2.70;;;;;;;22.02;67.74;99698.19;5115965;28;20028;-82
2021/08/06 02:52:06;;;;;;;4.90;2.33;;;;;;;22.12;67.51;99699.13;5115894;28;20038;-80
2021/08/06 02:54:38;;;;;;;7.47;3.67;;;;;;;22.07;67.40;99700.44;5115822;28;20051;-82
2021/08/06 02:57:06;;;;;;;4.80;2.35;;;;;;;22.07;67.48;99703.28;5115967;28;20038;-81
2021/08/06 02:59:37;;;;;;;8.90;2.00;;;;;;;22.10;67.28;99704.41;5115709;28;20032;-82
2021/08/06 03:02:08;;;;;;;7.35;2.35;;;;;;;22.11;67.66;99700.38;5115319;28;20030;-79
2021/08/06 03:04:37;;;;;;;11.07;3.33;;;;;;;22.16;67.99;99705.47;5115600;28;20028;-83
2021/08/06 03:07:07;;;;;;;7.28;2.72;;;;;;;22.10;68.61;99701.56;5115594;28;20100;-80
2021/08/06 03:09:39;;;;;;;8.57;2.20;;;;;;;22.16;68.67;99696.97;5115723;28;20031;-79
2021/08/06 03:12:10;;;;;;;6.90;2.75;;;;;;;22.10;68.52;99698.75;5116011;28;20054;-81
2021/08/06 03:14:40;;;;;;;4.90;2.40;;;;;;;22.17;67.54;99695.72;5132547;27;20126;-82
2021/08/06 03:17:10;;;;;;;5.60;3.15;;;;;;;22.10;67.52;99696.72;5115361;28;20070;-80
2021/08/06 03:19:38;;;;;;;8.18;2.80;;;;;;;21.98;67.27;99681.28;5115586;27;20123;-83
2021/08/06 03:22:04;;;;;;;6.68;3.10;;;;;;;22.12;67.44;99702.75;5115269;28;20020;-79
2021/08/06 03:24:31;;;;;;;4.47;2.08;;;;;;;22.06;67.94;99706.59;5115492;28;20038;-84
2021/08/06 03:26:59;;;;;;;8.13;2.65;;;;;;;22.04;68.44;99701.34;5116484;28;20028;-82
2021/08/06 03:29:31;;;;;;;6.68;2.65;;;;;;;22.04;69.40;99711.88;5115113;28;20118;-81
2021/08/06 03:31:56;;;;;;;4.60;2.45;;;;;;;22.05;69.82;99710.63;5132193;27;20114;-82
2021/08/06 03:34:24;;;;;;;5.93;2.55;;;;;;;22.05;70.06;99702.97;5115342;28;20122;-83
2021/08/06 03:36:53;;;;;;;8.45;2.40;;;;;;;22.10;69.98;99715.75;5115541;28;20027;-81
2021/08/06 03:39:24;;;;;;;7.25;2.90;;;;;;;22.21;69.82;99716.22;5115706;28;20042;-79
2021/08/06 03:41:50;;;;;;;6.80;2.90;;;;;;;22.18;69.87;99717.94;5115381;28;20023;-82
2021/08/06 03:44:18;;;;;;;6.45;2.45;;;;;;;22.20;69.96;99714.63;5114838;28;20427;-79
2021/08/06 03:46:48;;;;;;;6.65;2.10;;;;;;;22.18;69.81;99719.97;5114824;28;20027;-82
2021/08/06 03:49:18;;;;;;;7.13;2.33;;;;;;;22.11;70.45;99712.50;5114977;28;20031;-81
2021/08/06 03:51:47;;;;;;;6.35;2.75;;;;;;;22.13;70.58;99710.00;5113765;27;20016;-80
2021/08/06 03:54:15;;;;;;;9.32;2.35;;;;;;;22.18;70.85;99712.25;5114828;28;20458;-83
2021/08/06 03:56:46;;;;;;;8.70;2.70;;;;;;;22.18;70.33;99712.25;5114572;28;20031;-80
2021/08/06 03:59:14;;;;;;;5.20;2.30;;;;;;;22.14;70.62;99716.47;5131629;27;20027;-82
2021/08/06 04:01:42;;;;;;;5.00;2.40;;;;;;;22.20;70.49;99714.63;5114889;28;20023;-80
2021/08/06 04:04:08;;;;;;;5.65;2.20;;;;;;;22.23;70.48;99722.25;5114669;28;20067;-80
2021/08/06 04:06:36;;;;;;;8.85;3.05;;;;;;;22.22;70.34;99720.66;5114304;28;20027;-80
2021/08/06 04:09:01;;;;;;;6.68;2.22;;;;;;;22.23;70.30;99725.06;5114768;28;20045;-83
2021/08/06 04:11:30;;;;;;;8.38;2.35;;;;;;;22.27;70.17;99720.09;5114003;28;20481;-79
2021/08/06 04:13:59;;;;;;;4.90;2.40;;;;;;;22.32;69.80;99716.69;5114369;28;20432;-80
2021/08/06 04:16:27;;;;;;;9.93;3.72;;;;;;;22.32;70.20;99718.72;5114132;28;20034;-80
2021/08/06 04:18:56;;;;;;;5.90;2.17;;;;;;;22.30;70.32;99713.50;5113606;28;20056;-82
2021/08/06 04:21:24;;;;;;;7.13;2.30;;;;;;;22.33;70.18;99723.94;5113730;28;20023;-80
2021/08/06 04:23:52;;;;;;;7.95;2.47;;;;;;;22.39;69.90;99710.00;5115259;28;20034;-82
2021/08/06 04:26:21;;;;;;;6.82;2.17;;;;;;;22.46;69.44;99709.75;5113892;28;20028;-80
2021/08/06 04:28:52;;;;;;;6.60;2.67;;;;;;;22.50;69.45;99704.75;5113829;28;20023;-83
2021/08/06 04:31:23;;;;;;;6.45;3.22;;;;;;;22.60;68.90;99709.28;5113607;28;20043;-83
2021/08/06 04:33:54;;;;;;;7.47;2.50;;;;;;;22.60;69.03;99714.94;5113885;28;20039;-80
2021/08/06 04:36:24;;;;;;;9.23;2.53;;;;;;;22.61;68.67;99712.91;5113850;28;20482;-82
2021/08/06 04:38:50;;;;;;;6.75;2.80;;;;;;;22.69;68.68;99717.06;5113798;27;20032;-82
2021/08/06 04:41:17;;;;;;;5.00;2.40;;;;;;;22.59;68.77;99723.91;5113544;28;20409;-81
2021/08/06 04:43:45;;;;;;;9.40;2.80;;;;;;;22.68;68.62;99724.78;5113324;28;20061;-80
2021/08/06 04:46:16;;;;;;;7.63;2.40;;;;;;;22.87;67.78;99714.41;5113512;28;20023;-81
2021/08/06 04:48:44;;;;;;;4.82;2.15;;;;;;;22.84;67.97;99723.84;5113586;28;20054;-82
2021/08/06 04:51:09;;;;;;;7.72;2.72;;;;;;;22.95;67.68;99724.28;5113400;28;20480;-83
2021/08/06 04:53:40;;;;;;;9.30;2.38;;;;;;;22.93;67.53;99718.28;5113711;28;20035;-83
2021/08/06 04:56:09;;;;;;;7.13;2.97;;;;;;;23.07;66.99;99716.22;5113634;28;20134;-83
2021/08/06 04:58:41;;;;;;;5.05;2.67;;;;;;;23.24;66.58;99724.06;5115054;27;20038;-79
2021/08/06 05:01:12;;;;;;;6.18;2.22;;;;;;;23.24;66.23;99728.97;5113947;28;20027;-83
2021/08/06 05:03:40;;;;;;;7.05;2.83;;;;;;;23.61;65.58;99730.03;5130757;27;20031;-83
2021/08/06 05:06:08;;;;;;;7.78;2.47;;;;;;;23.89;64.04;99733.84;5113418;28;20474;-80
2021/08/06 05:08:42;;;;;;;6.18;2.10;;;;;;;24.44;62.34;99736.94;5130416;27;20042;-82
2021/08/06 05:11:07;;;;;;;5.22;2.10;;;;;;;24.92;60.57;99739.41;5131019;27;20462;-81
2021/08/06 05:13:39;;;;;;;7.93;2.35;;;;;;;24.72;61.07;99746.38;5113615;28;20059;-80
2021/08/06 05:16:04;;;;;;;8.35;2.28;;;;;;;24.34;61.58;99740.19;5115138;28;20031;-82
2021/08/06 05:18:38;;;;;;;5.65;2.22;;;;;;;25.22;59.46;99749.13;5113074;28;20051;-82
2021/08/06 05:21:04;;;;;;;5.93;2.33;;;;;;;24.91;59.97;99750.03;5113278;28;20024;-82
2021/08/06 05:23:33;;;;;;;5.80;2.42;;;;;;;24.70;60.66;99754.56;5130191;27;20035;-83
2021/08/06 05:26:03;;;;;;;5.65;2.03;;;;;;;24.36;61.27;99755.56;5113269;28;20028;-80
2021/08/06 05:28:32;;;;;;;5.82;2.50;;;;;;;24.58;60.64;99743.31;5113105;28;20031;-81
2021/08/06 05:31:03;;;;;;;5.38;2.10;;;;;;;24.70;60.25;99748.06;5113153;28;20118;-83
2021/08/06 05:33:34;;;;;;;4.95;2.22;;;;;;;25.19;58.59;99750.06;5113508;28;20522;-84
2021/08/06 05:36:02;;;;;;;7.50;2.40;;;;;;;26.61;54.88;99752.00;5115144;28;20366;-82
2021/08/06 05:38:28;;;;;;;6.78;2.22;;;;;;;26.65;53.77;99754.69;5116648;28;20519;-81
2021/08/06 05:40:54;;;;;;;5.32;2.28;;;;;;;26.47;54.33;99758.38;5120814;28;20027;-82
2021/08/06 05:43:24;;;;;;;4.93;1.90;;;;;;;26.30;54.68;99754.31;5114620;28;20035;-84
2021/08/06 05:45:52;;;;;;;4.63;2.15;;;;;;;26.11;55.47;99760.09;5113536;28;20483;-79
2021/08/06 05:48:22;;;;;;;9.27;3.33;;;;;;;26.54;54.96;99763.75;5130071;28;20035;-82
2021/08/06 05:50:53;;;;;;;8.57;2.20;;;;;;;26.34;54.86;99760.66;5113532;28;20380;-82
2021/08/06 05:53:21;;;;;;;5.30;2.20;;;;;;;26.26;54.87;99760.22;5112971;28;20024;-78
2021/08/06 05:55:50;;;;;;;3.50;1.92;;;;;;;27.01;53.14;99762.22;5113189;28;20046;-81
2021/08/06 05:58:18;;;;;;;9.75;2.45;;;;;;;26.85;53.60;99766.28;5112636;28;20039;-80
2021/08/06 06:00:43;;;;;;;4.93;1.92;;;;;;;27.42;52.35;99765.41;5112730;28;20061;-83
2021/08/06 06:03:09;;;;;;;4.68;1.75;;;;;;;28.37;49.99;99760.66;5113156;28;20024;-83
2021/08/06 06:05:37;;;;;;;2.85;1.60;;;;;;;28.58;48.95;99762.28;5113114;28;20417;-81
2021/08/06 06:08:05;;;;;;;5.57;2.10;;;;;;;29.46;46.74;99763.22;5112749;28;20042;-81
2021/08/06 06:10:33;;;;;;;4.57;1.85;;;;;;;29.55;45.73;99763.06;5112725;28;20478;-81
2021/08/06 06:13:02;;;;;;;3.70;1.65;;;;;;;29.31;46.30;99762.50;5129428;28;20119;-80
2021/08/06 06:15:34;;;;;;;5.03;1.75;;;;;;;28.89;46.58;99760.91;5113972;28;20104;-82
2021/08/06 06:18:03;;;;;;;2.75;1.48;;;;;;;29.21;45.89;99765.53;5116757;28;20061;-84
2021/08/06 06:20:29;;;;;;;6.28;1.98;;;;;;;30.10;44.17;99764.16;5116499;28;20034;-83
2021/08/06 06:22:57;;;;;;;3.90;1.77;;;;;;;30.46;43.76;99769.13;5116412;28;20031;-83
2021/08/06 06:25:28;;;;;;;5.55;1.88;;;;;;;29.95;44.29;99762.19;5116848;28;20027;-83
2021/08/06 06:28:00;;;;;;;6.18;1.90;;;;;;;30.85;42.17;99765.00;5116364;28;20089;-82
2021/08/06 06:30:31;;;;;;;4.43;1.73;;;;;;;31.30;41.32;99781.16;5133731;27;20119;-85
2021/08/06 06:33:04;;;;;;;2.60;1.58;;;;;;;31.47;39.43;99780.44;5116416;28;20051;-84
2021/08/06 06:35:35;;;;;;;;;;;;;;;30.61;41.78;99774.72;5116822;28;20024;-85
2021/08/06 06:38:03;;;;;;;3.83;1.92;;;;;;;30.33;41.87;99768.00;5116418;28;20384;-84
2021/08/06 06:40:32;;;;;;;7.13;2.20;;;;;;;29.84;43.77;99769.91;5133763;27;20127;-80
2021/08/06 06:43:00;;;;;;;5.45;1.70;;;;;;;29.83;43.92;99768.31;5116304;28;20111;-83
2021/08/06 06:45:32;;;;;;;9.52;2.30;;;;;;;29.33;45.00;99765.66;5117048;28;20358;-84
2021/08/06 06:48:06;;;;;;;5.10;1.40;;;;;;;27.93;47.40;99767.97;5116415;28;20023;-83
2021/08/06 06:50:35;;;;;;;4.68;1.70;;;;;;;27.89;47.80;99760.88;5116127;28;20038;-80
2021/08/06 06:53:03;;;;;;;5.35;2.20;;;;;;;29.25;43.83;99765.31;5116359;28;20020;-80
2021/08/06 06:55:31;;;;;;;5.90;1.92;;;;;;;29.64;43.12;99770.72;5115759;28;20035;-80
2021/08/06 06:57:57;;;;;;;2.55;1.20;;;;;;;30.05;41.33;99773.50;5115728;28;20024;-82
2021/08/06 07:00:29;;;;;;;3.83;1.65;;;;;;;30.69;39.80;99764.38;5116075;28;20042;-81
2021/08/06 07:02:57;;;;;;;6.88;1.92;;;;;;;30.65;39.31;99765.88;5133102;27;20065;-79
2021/08/06 07:05:30;;;;;;;3.17;1.65;;;;;;;30.49;40.01;99775.97;5116064;28;20027;-78
2021/08/06 07:08:01;;;;;;;4.15;1.95;;;;;;;31.33;38.10;99775.69;5132927;27;20059;-81
2021/08/06 07:10:29;;;;;;;4.60;1.58;;;;;;;31.10;37.96;99781.31;5117051;28;20156;-81
2021/08/06 07:12:57;;;;;;;4.28;1.70;;;;;;;30.90;38.71;99790.09;5115620;28;20024;-81
2021/08/06 07:15:23;;;;;;;2.75;1.40;;;;;;;30.89;39.19;99794.25;5115757;28;20019;-78
2021/08/06 07:17:52;;;;;;;3.85;1.63;;;;;;;31.03;38.80;99778.94;5098353;28;20059;-80
2021/08/06 07:20:19;;;;;;;2.70;1.50;;;;;;;30.14;40.74;99776.97;5115959;28;20027;-81
2021/08/06 07:22:45;;;;;;;5.18;1.50;;;;;;;30.42;39.93;99777.22;5132664;27;20143;-80
2021/08/06 07:25:16;;;;;;;4.75;1.83;;;;;;;30.67;39.47;99778.41;5115878;28;20034;-78
2021/08/06 07:27:47;;;;;;;2.80;1.50;;;;;;;31.26;38.41;99772.00;5113916;28;20035;-77
2021/08/06 07:30:19;;;;;;;11.73;2.58;;;;;;;31.42;39.08;99781.19;5114990;28;20026;-79
2021/08/06 07:32:48;;;;;;;8.35;1.90;;;;;;;30.34;41.40;99772.44;5114944;28;20112;-79
2021/08/06 07:35:21;;;;;;;2.58;1.27;;;;;;;30.51;40.80;99781.97;5116307;28;20066;-80
2021/08/06 07:37:48;;;;;;;;;;;;;;;30.77;40.46;99768.34;5115314;28;20036;-80
2021/08/06 07:40:17;;;;;;;2.90;1.45;;;;;;;29.61;42.46;99769.66;5114796;28;19949;-82
2021/08/06 07:42:45;;;;;;;4.15;1.50;;;;;;;29.71;42.79;99773.94;5114022;28;20069;-80
2021/08/06 07:45:16;;;;;;;5.22;2.42;;;;;;;30.04;42.57;99766.94;5132382;27;20531;-79
2021/08/06 07:47:42;;;;;;;3.88;1.80;;;;;;;30.67;40.77;99772.69;5132307;27;20022;-77
2021/08/06 07:50:08;;;;;;;2.15;1.60;;;;;;;31.09;39.91;99773.19;5115313;28;20460;-78
2021/08/06 07:52:36;;;;;;;11.02;2.17;;;;;;;30.70;40.26;99777.44;5116455;27;20026;-78
2021/08/06 07:55:09;;;;;;;6.18;1.75;;;;;;;31.38;38.98;99777.81;5114438;28;20038;-79
2021/08/06 07:57:36;;;;;;;6.45;1.98;;;;;;;31.60;38.52;99772.13;5114780;28;20023;-77
2021/08/06 08:00:02;;;;;;;3.10;1.40;;;;;;;32.32;37.70;99773.53;5132177;27;20389;-77
2021/08/06 08:02:31;;;;;;;4.07;2.42;;;;;;;32.39;36.52;99783.78;5114771;28;20046;-78
2021/08/06 08:05:02;;;;;;;3.42;1.80;;;;;;;31.66;38.20;99787.28;5114246;28;20031;-80
2021/08/06 08:07:32;;;;;;;7.60;2.38;;;;;;;30.97;39.51;99775.25;5131442;27;20061;-80
2021/08/06 08:10:01;;;;;;;5.90;1.38;;;;;;;32.33;37.24;99781.66;5114274;28;20023;-80
2021/08/06 08:12:31;;;;;;;2.65;1.88;;;;;;;33.04;35.64;99777.66;5114096;28;20023;-80
2021/08/06 08:15:02;;;;;;;5.63;2.28;;;;;;;31.98;37.72;99779.28;5113994;28;20031;-78
2021/08/06 08:17:27;;;;;;;7.28;1.67;;;;;;;31.37;37.79;99770.47;5113660;28;20019;-78
2021/08/06 08:19:55;;;;;;;4.65;2.30;;;;;;;32.77;35.72;99785.03;5114576;28;20034;-79
2021/08/06 08:22:21;;;;;;;5.07;2.08;;;;;;;32.27;35.80;99777.97;5114164;28;20481;-78
2021/08/06 08:24:49;;;;;;;4.43;2.10;;;;;;;31.94;35.77;99781.63;5130849;27;20023;-77
2021/08/06 08:27:23;;;;;;;4.30;1.48;;;;;;;31.63;36.67;99771.06;5113833;28;20063;-79
2021/08/06 08:29:54;;;;;;;4.10;1.30;;;;;;;31.29;37.27;99778.81;5115267;28;20028;-77
2021/08/06 08:32:25;;;;;;;4.22;1.70;;;;;;;32.41;36.04;99772.50;5113594;28;20030;-79
2021/08/06 08:34:51;;;;;;;4.43;1.70;;;;;;;33.27;34.46;99770.47;5130697;27;20063;-78
2021/08/06 08:37:19;;;;;;;4.07;1.83;;;;;;;33.66;33.67;99775.28;5115064;28;20038;-77
2021/08/06 08:39:45;;;;;;;8.63;1.85;;;;;;;34.43;31.94;99760.06;5131176;27;20023;-76
2021/08/06 08:42:15;;;;;;;2.75;1.50;;;;;;;33.63;32.97;99767.72;5113519;28;20031;-78
2021/08/06 08:44:47;;;;;;;3.63;1.60;;;;;;;34.34;31.88;99773.50;5113934;28;20136;-77
2021/08/06 08:47:24;;;;;;;3.45;1.85;;;;;;;34.79;30.55;99776.00;5114750;28;20085;-79
2021/08/06 08:49:54;;;;;;;3.45;1.35;;;;;;;35.46;28.93;99767.88;5113440;28;20058;-78
2021/08/06 08:52:25;;;;;;;2.25;1.38;;;;;;;34.93;29.65;99766.09;5113651;28;20485;-79
2021/08/06 08:54:54;;;;;;;4.70;1.83;;;;;;;35.24;28.66;99766.81;5113506;28;20046;-79
2021/08/06 08:57:23;;;;;;;5.00;1.88;;;;;;;35.01;29.16;99765.53;5113626;28;20839;-77
2021/08/06 08:59:55;;;;;;;5.72;1.77;;;;;;;33.46;32.39;99769.91;5114624;28;20030;-77
2021/08/06 09:02:26;;;;;;;4.43;2.50;;;;;;;34.90;30.26;99760.63;5113192;28;20084;-79
2021/08/06 09:05:28;;;;;;;3.53;1.52;;;;;;;34.69;31.73;99763.22;5113003;28;20047;-77
2021/08/06 09:08:15;;;;;;;2.28;1.13;;;;;;;33.02;33.92;99762.97;5095791;28;20032;-76
2021/08/06 09:10:46;;;;;;;6.72;1.83;;;;;;;33.27;33.44;99763.94;5113477;28;20522;-78
2021/08/06 09:13:21;;;;;;;11.95;2.53;;;;;;;32.98;33.43;99760.38;5113600;28;20461;-78
2021/08/06 09:16:05;;;;;;;3.58;1.40;;;;;;;33.59;33.27;99764.31;5113204;28;20390;-77
2021/08/06 09:18:34;;;;;;;1.52;1.40;;;;;;;34.05;32.53;99768.50;5112474;28;20050;-77
2021/08/06 09:21:20;;;;;;;8.20;2.72;;;;;;;33.22;33.78;99764.75;5114833;28;20024;-79
2021/08/06 09:23:55;;;;;;;3.03;1.67;;;;;;;33.71;33.47;99762.16;5096086;28;20036;-77
2021/08/06 09:26:31;;;;;;;5.43;3.20;;;;;;;31.99;36.59;99757.03;5113288;28;20416;-75
2021/08/06 09:29:04;;;;;;;5.88;2.40;;;;;;;33.96;33.19;99754.41;5113547;28;20050;-78
2021/08/06 09:31:35;;;;;;;4.70;2.03;;;;;;;34.38;32.61;99755.88;5112444;28;20031;-79
2021/08/06 09:34:24;;;;;;;5.40;2.50;;;;;;;34.05;33.47;99754.06;5112757;28;20027;-77
2021/08/06 09:37:02;;;;;;;3.63;1.63;;;;;;;34.08;33.18;99761.66;5112674;28;20110;-78
2021/08/06 09:39:36;;;;;;;2.55;1.40;;;;;;;34.04;33.54;99769.84;5114249;28;20028;-79
2021/08/06 09:42:14;;;;;;;3.72;1.48;;;;;;;33.05;35.81;99754.06;5112659;28;20030;-79
2021/08/06 09:44:45;;;;;;;4.13;1.77;;;;;;;32.17;37.54;99756.50;5129738;27;20031;-77
2021/08/06 09:47:22;;;;;;;6.35;1.77;;;;;;;32.68;36.69;99754.41;5129539;28;20023;-80
2021/08/06 09:49:53;;;;;;;4.18;1.52;;;;;;;32.93;36.29;99758.31;5111355;28;20088;-78
2021/08/06 09:52:37;;;;;;;5.80;1.80;;;;;;;33.57;35.18;99764.09;5112932;28;20053;-79
2021/08/06 09:55:11;;;;;;;5.63;2.00;;;;;;;33.24;35.46;99754.25;5112572;28;20258;-78
2021/08/06 09:57:44;;;;;;;3.45;1.63;;;;;;;33.54;34.70;99762.25;5114361;28;20042;-79
2021/08/06 10:00:14;;;;;;;6.80;2.00;;;;;;;33.48;33.96;99764.38;5112506;28;20023;-78
2021/08/06 10:02:41;;;;;;;4.28;1.67;;;;;;;32.78;36.14;99754.91;5112321;28;20064;-79
2021/08/06 10:05:10;;;;;;;1.38;1.20;;;;;;;31.66;38.21;99769.25;5113390;28;20098;-77
2021/08/06 10:07:41;;;;;;;4.30;2.03;;;;;;;32.25;37.40;99751.81;5113031;28;20044;-79
2021/08/06 10:10:13;;;;;;;3.13;1.60;;;;;;;32.61;37.27;99748.41;5112361;28;20034;-79
2021/08/06 10:12:40;;;;;;;3.93;2.33;;;;;;;32.25;36.94;99751.81;5113870;28;20023;-78
2021/08/06 10:15:10;;;;;;;3.10;1.83;;;;;;;31.88;38.17;99757.03;5112137;28;20039;-79
2021/08/06 10:17:38;;;;;;;4.05;1.70;;;;;;;31.41;39.62;99748.00;5129599;28;20371;-78
2021/08/06 10:20:06;;;;;;;4.78;2.35;;;;;;;32.49;36.75;99742.69;5112516;28;20114;-78
2021/08/06 10:22:32;;;;;;;6.13;1.48;;;;;;;32.70;36.99;99753.88;5129963;28;20031;-77
2021/08/06 10:25:06;;;;;;;4.57;1.50;;;;;;;32.98;36.75;99731.56;5112174;28;20423;-78
2021/08/06 10:27:37;;;;;;;4.13;1.77;;;;;;;33.37;35.73;99742.91;5112132;28;20027;-79
2021/08/06 10:30:08;;;;;;;3.67;1.45;;;;;;;33.22;36.82;99751.09;5113175;28;20028;-76
2021/08/06 10:32:38;;;;;;;5.63;2.03;;;;;;;32.30;37.83;99747.38;5112071;28;20024;-80
2021/08/06 10:35:10;;;;;;;4.10;1.70;;;;;;;32.31;37.95;99743.19;5129237;28;20027;-78
2021/08/06 10:37:54;;;;;;;7.35;2.28;;;;;;;32.81;36.62;99746.00;5112089;28;20085;-78
2021/08/06 10:40:32;;;;;;;5.85;1.30;;;;;;;32.14;38.34;99746.06;5112087;28;20023;-77
2021/08/06 10:43:10;;;;;;;2.15;1.42;;;;;;;31.96;38.03;99747.38;5112287;28;20494;-79
2021/08/06 10:45:45;;;;;;;4.07;2.03;;;;;;;32.23;38.07;99747.91;5112211;28;20077;-79
2021/08/06 10:48:30;;;;;;;6.05;2.05;;;;;;;32.28;37.94;99742.16;5112131;28;20084;-79
2021/08/06 10:51:29;;;;;;;3.65;1.60;;;;;;;31.86;38.98;99728.03;5094866;28;20039;-78
2021/08/06 10:53:58;;;;;;;6.05;1.73;;;;;;;31.42;39.09;99715.09;5097735;28;20051;-79
2021/08/06 10:56:30;;;;;;;4.72;1.77;;;;;;;31.80;38.48;99740.31;5112417;28;20489;-77
2021/08/06 10:59:02;;;;;;;5.07;2.10;;;;;;;31.46;39.70;99736.53;5114175;28;20354;-78
2021/08/06 11:01:28;;;;;;;6.65;2.03;;;;;;;31.54;39.39;99710.94;5114307;28;20456;-78
2021/08/06 11:04:02;;;;;;;7.53;2.63;;;;;;;32.25;38.09;99737.44;5116065;28;20486;-80
2021/08/06 11:06:47;;;;;;;2.60;1.65;;;;;;;31.71;39.41;99726.13;5116228;28;20378;-78
2021/08/06 11:09:25;;;;;;;4.35;1.73;;;;;;;31.60;40.00;99717.50;5115620;28;20466;-77
2021/08/06 11:11:57;;;;;;;4.13;2.03;;;;;;;30.94;40.91;99727.44;5115731;28;20063;-77
2021/08/06 11:14:28;;;;;;;4.50;2.00;;;;;;;31.09;40.56;99705.03;5115395;28;20108;-77
2021/08/06 11:17:14;;;;;;;5.75;2.15;;;;;;;30.68;41.32;99713.97;5115317;28;20077;-78
2021/08/06 11:19:45;;;;;;;6.45;2.00;;;;;;;29.91;44.10;99712.09;5115383;28;20088;-80
2021/08/06 11:22:17;;;;;;;5.47;2.25;;;;;;;30.41;43.00;99698.13;5116015;28;20031;-80
2021/08/06 11:24:51;;;;;;;28.83;4.07;;;;;;;30.40;41.94;99701.53;5115468;28;20490;-77
2021/08/06 11:27:32;;;;;;;11.32;3.55;;;;;;;31.10;41.02;99709.47;5115419;28;20037;-79
2021/08/06 11:30:09;;;;;;;3.78;1.80;;;;;;;31.17;41.11;99720.50;5132631;27;20031;-78
2021/08/06 11:32:55;;;;;;;2.72;1.40;;;;;;;31.06;39.57;99694.59;5132289;27;20055;-77
2021/08/06 11:35:30;;;;;;;7.72;2.08;;;;;;;31.49;39.63;99709.63;5116256;28;20020;-77
2021/08/06 11:38:02;;;;;;;5.07;1.55;;;;;;;31.01;40.04;99709.72;5116602;28;20063;-79
2021/08/06 11:40:34;;;;;;;4.55;1.42;;;;;;;31.57;39.60;99698.41;5116179;28;20029;-78
2021/08/06 11:43:16;;;;;;;4.68;1.90;;;;;;;31.72;39.07;99698.94;5131994;27;20051;-79
2021/08/06 11:45:47;;;;;;;8.63;1.92;;;;;;;31.04;39.89;99697.19;5132120;27;20125;-80
2021/08/06 11:48:15;;;;;;;5.15;1.67;;;;;;;31.86;38.71;99696.38;5115103;28;20035;-78
2021/08/06 11:50:56;;;;;;;4.45;1.55;;;;;;;31.92;38.80;99702.91;5131913;27;20028;-80